createdAt,value
2017-08-14T00:00:31.734Z,63.60
2017-08-14T00:02:59.199Z,63.60
2017-08-14T00:05:26.579Z,63.60
2017-08-14T00:07:53.749Z,63.70
2017-08-14T00:10:21.377Z,64.30
2017-08-14T00:12:48.557Z,63.80
2017-08-14T00:15:15.729Z,63.70
2017-08-14T00:17:42.950Z,63.80
2017-08-14T00:20:10.196Z,63.80
2017-08-14T00:22:37.380Z,63.80
2017-08-14T00:25:04.712Z,63.80
2017-08-14T00:27:31.881Z,63.80
2017-08-14T00:29:59.515Z,63.80
2017-08-14T00:32:27.084Z,63.80
2017-08-14T00:34:54.252Z,63.80
2017-08-14T00:37:21.770Z,63.90
2017-08-14T00:39:49.146Z,63.90
2017-08-14T00:42:16.708Z,63.90
2017-08-14T00:44:44.134Z,63.90
2017-08-14T00:47:11.321Z,63.90
2017-08-14T00:49:38.854Z,63.90
2017-08-14T00:52:06.026Z,63.90
2017-08-14T00:54:33.216Z,63.90
2017-08-14T00:57:00.427Z,63.90
2017-08-14T00:59:27.949Z,64.00
2017-08-14T01:01:55.189Z,64.00
2017-08-14T01:04:22.357Z,64.00
2017-08-14T01:06:49.547Z,64.00
2017-08-14T01:09:16.789Z,64.00
2017-08-14T01:11:43.971Z,64.00
2017-08-14T01:14:11.276Z,64.00
2017-08-14T01:16:38.540Z,64.00
2017-08-14T01:19:05.728Z,64.00
2017-08-14T01:21:33.358Z,63.90
2017-08-14T01:24:00.541Z,64.00
2017-08-14T01:26:27.705Z,64.10
2017-08-14T01:28:54.910Z,64.10
2017-08-14T01:31:22.365Z,64.10
2017-08-14T01:33:49.889Z,64.10
2017-08-14T01:36:17.275Z,64.10
2017-08-14T01:38:44.801Z,64.10
2017-08-14T01:41:11.980Z,64.10
2017-08-14T01:43:39.535Z,64.10
2017-08-14T01:46:06.708Z,64.20
2017-08-14T01:48:33.947Z,64.20
2017-08-14T01:51:01.127Z,64.20
2017-08-14T01:53:28.318Z,64.20
2017-08-14T01:55:55.822Z,64.20
2017-08-14T01:58:23.363Z,64.20
2017-08-14T02:00:50.559Z,64.10
2017-08-14T02:03:17.950Z,64.20
2017-08-14T02:05:45.191Z,64.10
2017-08-14T02:08:13.121Z,63.70
2017-08-14T02:10:40.288Z,64.10
2017-08-14T02:13:07.460Z,64.10
2017-08-14T02:15:34.758Z,64.10
2017-08-14T02:18:02.205Z,64.00
2017-08-14T02:20:29.978Z,64.10
2017-08-14T02:22:57.156Z,64.10
2017-08-14T02:25:24.580Z,64.00
2017-08-14T02:27:51.760Z,64.00
2017-08-14T02:30:18.933Z,64.10
2017-08-14T02:32:46.408Z,64.00
2017-08-14T02:35:13.584Z,64.00
2017-08-14T02:37:41.142Z,64.10
2017-08-14T02:40:08.314Z,64.10
2017-08-14T02:42:35.557Z,64.00
2017-08-14T02:45:03.143Z,64.00
2017-08-14T02:47:30.460Z,64.00
2017-08-14T02:49:57.928Z,64.20
2017-08-14T02:52:25.380Z,64.00
2017-08-14T02:54:52.841Z,63.10
2017-08-14T02:57:20.027Z,62.20
2017-08-14T02:59:47.207Z,61.50
2017-08-14T03:02:14.464Z,61.70
2017-08-14T03:04:41.957Z,62.20
2017-08-14T03:07:09.147Z,62.30
2017-08-14T03:09:36.664Z,62.40
2017-08-14T03:12:04.186Z,62.70
2017-08-14T03:14:31.573Z,62.90
2017-08-14T03:16:58.768Z,63.00
2017-08-14T03:19:26.288Z,63.00
2017-08-14T03:21:53.830Z,63.10
2017-08-14T03:24:21.409Z,63.30
2017-08-14T03:26:48.578Z,63.40
2017-08-14T03:29:16.022Z,63.40
2017-08-14T03:31:43.194Z,63.50
2017-08-14T03:34:10.611Z,64.10
2017-08-14T03:36:38.184Z,63.60
2017-08-14T03:39:05.726Z,63.60
2017-08-14T03:41:33.300Z,63.60
2017-08-14T03:44:01.065Z,63.50
2017-08-14T03:46:28.251Z,63.60
2017-08-14T03:48:55.421Z,63.60
2017-08-14T03:51:22.627Z,63.60
2017-08-14T03:53:49.815Z,63.60
2017-08-14T03:56:17.272Z,64.40
2017-08-14T03:58:44.445Z,63.70
2017-08-14T04:01:11.614Z,63.70
2017-08-14T04:03:38.800Z,63.70
2017-08-14T04:06:05.990Z,63.70
2017-08-14T04:08:34.159Z,63.50
2017-08-14T04:11:01.676Z,63.80
2017-08-14T04:13:28.853Z,63.80
2017-08-14T04:15:56.022Z,63.80
2017-08-14T04:18:23.300Z,63.80
2017-08-14T04:20:50.764Z,63.80
2017-08-14T04:23:17.959Z,63.80
2017-08-14T04:25:45.374Z,63.80
2017-08-14T04:28:12.541Z,63.80
2017-08-14T04:30:40.188Z,63.80
2017-08-14T04:33:07.442Z,63.80
2017-08-14T04:35:34.895Z,63.80
2017-08-14T04:38:02.417Z,63.80
2017-08-14T04:40:29.934Z,63.90
2017-08-14T04:42:57.132Z,63.90
2017-08-14T04:45:24.409Z,63.90
2017-08-14T04:47:51.876Z,63.90
2017-08-14T04:50:19.428Z,63.90
2017-08-14T04:52:46.970Z,63.90
2017-08-14T04:55:16.248Z,63.90
2017-08-14T04:57:43.852Z,63.90
2017-08-14T05:00:11.373Z,63.90
2017-08-14T05:02:38.640Z,63.90
2017-08-14T05:05:05.826Z,63.90
2017-08-14T05:07:33.012Z,64.00
2017-08-14T05:10:00.668Z,64.00
2017-08-14T05:12:28.160Z,64.10
2017-08-14T05:14:55.754Z,64.10
2017-08-14T05:17:22.925Z,64.10
2017-08-14T05:19:50.106Z,64.10
2017-08-14T05:22:17.288Z,64.10
2017-08-14T05:24:44.660Z,64.20
2017-08-14T05:27:11.844Z,64.20
2017-08-14T05:29:39.267Z,64.10
2017-08-14T05:32:06.721Z,64.10
2017-08-14T05:34:34.181Z,64.10
2017-08-14T05:37:01.808Z,64.10
2017-08-14T05:39:28.995Z,64.10
2017-08-14T05:41:56.179Z,64.10
2017-08-14T05:44:23.388Z,64.10
2017-08-14T05:46:50.903Z,64.10
2017-08-14T05:49:18.396Z,64.10
2017-08-14T05:51:45.566Z,64.10
2017-08-14T05:54:12.912Z,64.00
2017-08-14T05:56:40.148Z,64.10
2017-08-14T05:59:07.317Z,64.10
2017-08-14T06:01:34.729Z,64.10
2017-08-14T06:04:01.976Z,64.10
2017-08-14T06:06:29.589Z,64.10
2017-08-14T06:08:57.035Z,64.10
2017-08-14T06:11:24.496Z,64.10
2017-08-14T06:13:51.952Z,64.10
2017-08-14T06:16:19.121Z,64.10
2017-08-14T06:18:46.560Z,64.10
2017-08-14T06:21:14.016Z,64.10
2017-08-14T06:23:41.791Z,64.10
2017-08-14T06:26:09.304Z,64.10
2017-08-14T06:28:36.822Z,64.10
2017-08-14T06:31:04.152Z,64.10
2017-08-14T06:33:31.610Z,64.10
2017-08-14T06:35:58.795Z,64.30
2017-08-14T06:38:25.980Z,63.90
2017-08-14T06:40:53.374Z,63.80
2017-08-14T06:43:21.001Z,64.30
2017-08-14T06:45:48.217Z,64.70
2017-08-14T06:48:15.484Z,64.80
2017-08-14T06:50:42.664Z,64.70
2017-08-14T06:53:10.041Z,64.70
2017-08-14T06:55:37.489Z,64.60
2017-08-14T06:58:04.665Z,64.60
2017-08-14T07:00:31.854Z,64.60
2017-08-14T07:02:59.366Z,64.60
2017-08-14T07:05:26.908Z,64.60
2017-08-14T07:07:54.077Z,64.50
2017-08-14T07:10:21.249Z,64.50
2017-08-14T07:12:48.469Z,64.50
2017-08-14T07:15:16.126Z,64.50
2017-08-14T07:17:43.312Z,64.50
2017-08-14T07:20:10.612Z,64.40
2017-08-14T07:22:37.801Z,64.40
2017-08-14T07:25:05.322Z,64.50
2017-08-14T07:27:32.909Z,64.50
2017-08-14T07:30:00.364Z,64.50
2017-08-14T07:32:27.820Z,64.50
2017-08-14T07:34:54.990Z,64.50
2017-08-14T07:37:22.172Z,64.50
2017-08-14T07:39:49.764Z,64.50
2017-08-14T07:42:16.937Z,64.50
2017-08-14T07:44:44.179Z,64.50
2017-08-14T07:47:11.353Z,64.50
2017-08-14T07:49:38.899Z,64.50
2017-08-14T07:52:06.066Z,64.50
2017-08-14T07:54:33.247Z,64.50
2017-08-14T07:57:00.425Z,64.40
2017-08-14T07:59:27.632Z,65.10
2017-08-14T08:01:54.843Z,64.40
2017-08-14T08:04:22.305Z,64.40
2017-08-14T08:06:49.759Z,64.50
2017-08-14T08:09:16.996Z,64.50
2017-08-14T08:11:44.376Z,64.50
2017-08-14T08:14:11.825Z,64.50
2017-08-14T08:16:39.361Z,64.50
2017-08-14T08:19:06.563Z,64.50
2017-08-14T08:21:33.893Z,64.50
2017-08-14T08:24:01.342Z,64.50
2017-08-14T08:26:28.513Z,64.60
2017-08-14T08:28:55.956Z,64.60
2017-08-14T08:31:23.465Z,64.60
2017-08-14T08:33:50.867Z,64.60
2017-08-14T08:36:18.199Z,64.60
2017-08-14T08:38:45.477Z,64.60
2017-08-14T08:41:13.134Z,64.60
2017-08-14T08:43:40.304Z,64.60
2017-08-14T08:46:07.477Z,64.60
2017-08-14T08:48:34.691Z,64.50
2017-08-14T08:51:01.861Z,64.50
2017-08-14T08:53:29.445Z,64.60
2017-08-14T08:55:56.936Z,64.60
2017-08-14T08:58:24.526Z,64.60
2017-08-14T09:00:51.977Z,64.60
2017-08-14T09:03:19.490Z,64.60
2017-08-14T09:05:46.675Z,64.60
2017-08-14T09:08:14.040Z,64.50
2017-08-14T09:10:41.501Z,64.50
2017-08-14T09:13:08.808Z,64.40
2017-08-14T09:15:35.977Z,64.40
2017-08-14T09:18:03.257Z,64.40
2017-08-14T09:20:30.456Z,64.40
2017-08-14T09:22:57.636Z,64.40
2017-08-14T09:25:25.022Z,64.40
2017-08-14T09:27:52.204Z,64.40
2017-08-14T09:30:19.620Z,64.40
2017-08-14T09:32:46.793Z,64.40
2017-08-14T09:35:14.289Z,64.40
2017-08-14T09:37:41.682Z,64.40
2017-08-14T09:40:09.226Z,64.40
2017-08-14T09:42:36.412Z,64.40
2017-08-14T09:45:03.603Z,64.40
2017-08-14T09:47:30.773Z,64.40
2017-08-14T09:49:58.047Z,64.40
2017-08-14T09:52:25.231Z,64.40
2017-08-14T09:54:52.662Z,64.40
2017-08-14T09:57:19.833Z,64.40
2017-08-14T09:59:47.312Z,64.50
2017-08-14T10:02:14.833Z,63.80
2017-08-14T10:04:42.002Z,62.80
2017-08-14T10:07:09.184Z,61.90
2017-08-14T10:09:36.476Z,61.30
2017-08-14T10:12:04.128Z,61.50
2017-08-14T10:14:31.707Z,62.20
2017-08-14T10:16:59.478Z,62.20
2017-08-14T10:19:26.918Z,62.40
2017-08-14T10:21:54.089Z,62.70
2017-08-14T10:24:21.535Z,62.90
2017-08-14T10:26:48.708Z,63.00
2017-08-14T10:29:16.135Z,63.00
2017-08-14T10:31:43.309Z,63.20
2017-08-14T10:34:10.486Z,63.20
2017-08-14T10:36:37.690Z,63.40
2017-08-14T10:39:04.877Z,63.50
2017-08-14T10:41:32.197Z,64.10
2017-08-14T10:43:59.373Z,63.50
2017-08-14T10:46:27.113Z,63.60
2017-08-14T10:48:54.300Z,63.70
2017-08-14T10:51:21.492Z,63.70
2017-08-14T10:53:48.858Z,63.70
2017-08-14T10:56:16.045Z,63.70
2017-08-14T10:58:43.529Z,63.80
2017-08-14T11:01:10.697Z,63.80
2017-08-14T11:03:38.076Z,63.80
2017-08-14T11:06:05.246Z,63.80
2017-08-14T11:08:32.775Z,63.80
2017-08-14T11:11:00.143Z,63.90
2017-08-14T11:13:27.332Z,63.90
2017-08-14T11:15:54.497Z,63.90
2017-08-14T11:18:22.213Z,63.90
2017-08-14T11:20:49.385Z,63.90
2017-08-14T11:23:16.859Z,63.90
2017-08-14T11:25:44.047Z,63.90
2017-08-14T11:28:11.229Z,63.90
2017-08-14T11:30:38.756Z,63.90
2017-08-14T11:33:05.944Z,64.00
2017-08-14T11:35:33.365Z,64.00
2017-08-14T11:38:00.542Z,64.60
2017-08-14T11:40:27.949Z,64.00
2017-08-14T11:42:55.557Z,64.00
2017-08-14T11:45:22.725Z,64.00
2017-08-14T11:47:49.898Z,64.00
2017-08-14T11:50:17.312Z,64.00
2017-08-14T11:52:44.860Z,64.00
2017-08-14T11:55:12.404Z,64.00
2017-08-14T11:57:39.990Z,64.00
2017-08-14T12:00:07.444Z,64.10
2017-08-14T12:02:34.954Z,64.10
2017-08-14T12:05:02.145Z,64.10
2017-08-14T12:07:29.318Z,64.10
2017-08-14T12:09:56.655Z,64.10
2017-08-14T12:12:23.853Z,64.20
2017-08-14T12:14:51.265Z,64.20
2017-08-14T12:17:18.785Z,64.20
2017-08-14T12:19:46.125Z,64.20
2017-08-14T12:22:13.311Z,64.20
2017-08-14T12:24:40.779Z,64.20
2017-08-14T12:27:08.239Z,64.20
2017-08-14T12:29:35.772Z,64.20
2017-08-14T12:32:03.172Z,64.20
2017-08-14T12:34:30.355Z,64.20
2017-08-14T12:36:57.542Z,64.20
2017-08-14T12:39:24.741Z,64.70
2017-08-14T12:41:51.910Z,64.40
2017-08-14T12:44:19.081Z,64.40
2017-08-14T12:46:46.418Z,64.50
2017-08-14T12:49:13.815Z,64.50
2017-08-14T12:51:40.994Z,64.50
2017-08-14T12:54:08.519Z,64.50
2017-08-14T12:56:35.884Z,64.40
2017-08-14T12:59:03.530Z,64.40
2017-08-14T13:01:30.794Z,64.40
2017-08-14T13:03:57.975Z,64.30
2017-08-14T13:06:25.722Z,64.30
2017-08-14T13:08:52.911Z,64.20
2017-08-14T13:11:20.085Z,64.40
2017-08-14T13:13:47.269Z,64.40
2017-08-14T13:16:14.456Z,64.40
2017-08-14T13:18:41.969Z,64.40
2017-08-14T13:21:09.155Z,64.30
2017-08-14T13:23:36.340Z,64.40
2017-08-14T13:26:04.456Z,65.00
2017-08-14T13:28:31.639Z,64.30
2017-08-14T13:30:59.056Z,64.30
2017-08-14T13:33:26.573Z,64.20
2017-08-14T13:35:53.745Z,64.30
2017-08-14T13:38:20.913Z,64.20
2017-08-14T13:40:48.274Z,65.00
2017-08-14T13:43:15.449Z,65.00
2017-08-14T13:45:43.088Z,65.00
2017-08-14T13:48:10.668Z,65.00
2017-08-14T13:50:38.044Z,64.60
2017-08-14T13:53:05.237Z,63.80
2017-08-14T13:55:32.780Z,63.10
2017-08-14T13:57:59.968Z,62.20
2017-08-14T14:00:27.322Z,61.70
2017-08-14T14:02:54.773Z,61.10
2017-08-14T14:05:22.422Z,62.00
2017-08-14T14:07:49.596Z,62.40
2017-08-14T14:10:16.778Z,62.40
2017-08-14T14:12:43.989Z,62.60
2017-08-14T14:15:11.445Z,62.90
2017-08-14T14:17:38.965Z,62.90
2017-08-14T14:20:06.137Z,63.00
2017-08-14T14:22:33.311Z,63.30
2017-08-14T14:25:00.667Z,63.30
2017-08-14T14:27:27.845Z,63.40
2017-08-14T14:29:55.013Z,63.40
2017-08-14T14:32:22.215Z,63.50
2017-08-14T14:34:49.682Z,63.50
2017-08-14T14:37:16.872Z,63.60
2017-08-14T14:39:44.049Z,63.60
2017-08-14T14:42:11.506Z,64.30
2017-08-14T14:44:38.788Z,63.70
2017-08-14T14:47:06.003Z,63.70
2017-08-14T14:49:33.391Z,63.80
2017-08-14T14:52:00.954Z,63.80
2017-08-14T14:54:28.136Z,63.80
2017-08-14T14:56:55.448Z,63.80
2017-08-14T14:59:22.652Z,63.80
2017-08-14T15:01:50.059Z,63.80
2017-08-14T15:04:17.251Z,63.80
2017-08-14T15:06:44.782Z,63.80
2017-08-14T15:09:11.950Z,63.90
2017-08-14T15:11:39.343Z,63.90
2017-08-14T15:14:06.727Z,63.90
2017-08-14T15:16:33.897Z,63.90
2017-08-14T15:19:01.653Z,63.90
2017-08-14T15:21:28.837Z,63.90
2017-08-14T15:23:56.246Z,64.30
2017-08-14T15:26:23.772Z,64.20
2017-08-14T15:28:50.951Z,64.30
2017-08-14T15:31:18.133Z,64.30
2017-08-14T15:33:45.648Z,64.30
2017-08-14T15:36:12.836Z,64.20
2017-08-14T15:38:40.389Z,64.20
2017-08-14T15:41:07.561Z,64.10
2017-08-14T15:43:35.093Z,64.10
2017-08-14T15:46:02.264Z,64.10
2017-08-14T15:48:29.448Z,64.10
2017-08-14T15:50:56.944Z,64.20
2017-08-14T15:53:24.517Z,64.20
2017-08-14T15:55:51.700Z,64.20
2017-08-14T15:58:18.869Z,64.10
2017-08-14T16:00:46.052Z,64.20
2017-08-14T16:03:13.482Z,64.30
2017-08-14T16:05:40.876Z,64.30
2017-08-14T16:08:08.060Z,64.30
2017-08-14T16:10:35.490Z,64.40
2017-08-14T16:13:02.661Z,64.40
2017-08-14T16:15:29.965Z,64.40
2017-08-14T16:17:57.134Z,64.40
2017-08-14T16:20:25.011Z,64.40
2017-08-14T16:22:52.195Z,64.40
2017-08-14T16:25:19.537Z,64.40
2017-08-14T16:27:46.761Z,64.40
2017-08-14T16:30:13.947Z,64.40
2017-08-14T16:32:41.289Z,64.40
2017-08-14T16:35:08.473Z,64.40
2017-08-14T16:37:35.675Z,64.40
2017-08-14T16:40:03.191Z,64.40
2017-08-14T16:42:30.358Z,64.40
2017-08-14T16:44:57.737Z,64.40
2017-08-14T16:47:25.321Z,64.20
2017-08-14T16:49:52.498Z,64.30
2017-08-14T16:52:19.951Z,64.20
2017-08-14T16:54:47.130Z,64.10
2017-08-14T16:57:14.719Z,64.10
2017-08-14T16:59:42.353Z,64.20
2017-08-14T17:02:09.598Z,64.20
2017-08-14T17:04:37.702Z,64.30
2017-08-14T17:07:04.900Z,64.20
2017-08-14T17:09:32.679Z,64.30
2017-08-14T17:12:00.068Z,64.20
2017-08-14T17:14:27.840Z,64.30
2017-08-14T17:16:55.064Z,64.20
2017-08-14T17:19:22.806Z,64.30
2017-08-14T17:21:50.334Z,64.20
2017-08-14T17:24:17.778Z,64.30
2017-08-14T17:26:45.495Z,64.30
2017-08-14T17:29:12.986Z,63.50
2017-08-14T17:31:40.173Z,62.50
2017-08-14T17:34:07.341Z,61.70
2017-08-14T17:36:34.524Z,61.20
2017-08-14T17:39:01.789Z,61.90
2017-08-14T17:41:29.325Z,62.30
2017-08-14T17:43:56.706Z,62.50
2017-08-14T17:46:24.477Z,62.70
2017-08-14T17:48:51.663Z,62.70
2017-08-14T17:51:19.079Z,62.80
2017-08-14T17:53:46.711Z,62.90
2017-08-14T17:56:14.304Z,63.10
2017-08-14T17:58:41.481Z,63.10
2017-08-14T18:01:08.912Z,63.20
2017-08-14T18:03:37.288Z,63.30
2017-08-14T18:06:04.478Z,63.40
2017-08-14T18:08:31.657Z,63.50
2017-08-14T18:10:58.836Z,63.50
2017-08-14T18:13:26.374Z,63.60
2017-08-14T18:15:53.890Z,63.60
2017-08-14T18:18:22.341Z,63.60
2017-08-14T18:20:50.181Z,63.70
2017-08-14T18:23:17.556Z,63.70
2017-08-14T18:25:45.087Z,63.70
2017-08-14T18:28:12.577Z,63.80
2017-08-14T18:30:40.240Z,63.80
2017-08-14T18:33:07.789Z,63.80
2017-08-14T18:35:34.977Z,63.80
2017-08-14T18:38:02.335Z,63.80
2017-08-14T18:40:30.049Z,63.80
2017-08-14T18:42:57.614Z,63.80
2017-08-14T18:45:24.982Z,63.90
2017-08-14T18:47:52.518Z,63.90
2017-08-14T18:50:19.897Z,63.90
2017-08-14T18:52:47.076Z,63.90
2017-08-14T18:55:14.262Z,63.90
2017-08-14T18:57:41.959Z,63.90
2017-08-14T19:00:10.343Z,63.90
2017-08-14T19:02:38.107Z,63.80
2017-08-14T19:05:05.863Z,63.90
2017-08-14T19:07:34.354Z,63.90
2017-08-14T19:10:01.285Z,63.90
2017-08-14T19:12:28.740Z,63.90
2017-08-14T19:14:56.314Z,63.90
2017-08-14T19:17:23.746Z,63.90
2017-08-14T19:19:50.930Z,64.00
2017-08-14T19:22:18.684Z,64.00
2017-08-14T19:24:46.303Z,64.00
2017-08-14T19:27:13.601Z,64.00
2017-08-14T19:29:41.606Z,64.00
2017-08-14T19:32:09.604Z,64.20
2017-08-14T19:34:36.895Z,64.20
2017-08-14T19:37:04.434Z,64.20
2017-08-14T19:39:31.635Z,64.20
2017-08-14T19:41:58.834Z,64.20
2017-08-14T19:44:26.108Z,64.20
2017-08-14T19:46:53.871Z,64.20
2017-08-14T19:49:21.325Z,65.00
2017-08-14T19:51:48.786Z,64.40
2017-08-14T19:54:16.312Z,64.30
2017-08-14T19:56:43.825Z,64.40
2017-08-14T19:59:11.007Z,64.30
2017-08-14T20:01:39.749Z,64.30
2017-08-14T20:04:07.306Z,64.30
2017-08-14T20:06:34.820Z,64.40
2017-08-14T20:09:02.365Z,64.40
2017-08-14T20:11:30.286Z,64.40
2017-08-14T20:13:57.650Z,64.50
2017-08-14T20:16:25.271Z,64.40
2017-08-14T20:18:52.965Z,64.40
2017-08-14T20:21:20.545Z,64.40
2017-08-14T20:23:48.094Z,64.50
2017-08-14T20:26:16.260Z,64.30
2017-08-14T20:28:43.713Z,64.20
2017-08-14T20:31:11.994Z,64.20
2017-08-14T20:33:39.245Z,64.30
2017-08-14T20:36:06.690Z,64.40
2017-08-14T20:38:34.949Z,64.30
2017-08-14T20:41:02.234Z,64.30
2017-08-14T20:43:29.863Z,64.40
2017-08-14T20:45:57.140Z,64.30
2017-08-14T20:48:24.608Z,64.30
2017-08-14T20:50:51.862Z,64.40
2017-08-14T20:53:19.776Z,64.30
2017-08-14T20:55:47.369Z,64.30
2017-08-14T20:58:15.674Z,64.40
2017-08-14T21:00:43.426Z,64.40
2017-08-14T21:03:10.877Z,64.30
2017-08-14T21:05:38.540Z,64.60
2017-08-14T21:08:05.822Z,64.00
2017-08-14T21:10:33.346Z,62.90
2017-08-14T21:13:00.718Z,62.10
2017-08-14T21:15:28.160Z,61.50
2017-08-14T21:17:55.356Z,61.50
2017-08-14T21:20:22.868Z,62.40
2017-08-14T21:22:50.045Z,62.70
2017-08-14T21:25:17.376Z,62.60
2017-08-14T21:27:44.832Z,62.60
2017-08-14T21:30:12.287Z,63.00
2017-08-14T21:32:39.930Z,63.00
2017-08-14T21:35:07.106Z,63.10
2017-08-14T21:37:34.273Z,63.10
2017-08-14T21:40:01.556Z,63.30
2017-08-14T21:42:29.048Z,63.40
2017-08-14T21:44:56.288Z,63.50
2017-08-14T21:47:23.568Z,63.50
2017-08-14T21:49:51.037Z,63.60
2017-08-14T21:52:18.228Z,63.60
2017-08-14T21:54:45.397Z,63.70
2017-08-14T21:57:12.851Z,63.70
2017-08-14T21:59:40.504Z,63.80
2017-08-14T22:02:08.068Z,63.80
2017-08-14T22:04:35.264Z,63.80
2017-08-14T22:07:02.797Z,63.90
2017-08-14T22:09:31.342Z,63.90
2017-08-14T22:11:58.832Z,63.90
2017-08-14T22:14:26.670Z,63.90
2017-08-14T22:16:54.216Z,64.00
2017-08-14T22:19:22.533Z,64.00
2017-08-14T22:21:50.120Z,64.00
2017-08-14T22:24:17.580Z,64.00
2017-08-14T22:26:45.037Z,64.10
2017-08-14T22:29:12.492Z,64.10
2017-08-14T22:31:40.045Z,64.10
2017-08-14T22:34:07.587Z,64.10
2017-08-14T22:36:34.761Z,64.00
2017-08-14T22:39:02.197Z,64.20
2017-08-14T22:41:29.662Z,64.10
2017-08-14T22:43:57.441Z,64.20
2017-08-14T22:46:25.008Z,64.20
2017-08-14T22:48:53.936Z,64.20
2017-08-14T22:51:23.359Z,64.10
2017-08-14T23:09:55.985Z,64.30
2017-08-14T23:12:23.171Z,64.40
2017-08-14T23:14:50.589Z,64.40
2017-08-14T23:17:18.100Z,64.40
2017-08-14T23:19:45.619Z,64.50
2017-08-14T23:22:12.794Z,64.50
2017-08-14T23:24:40.112Z,64.50
2017-08-14T23:27:07.300Z,64.40
2017-08-14T23:29:34.717Z,64.40
2017-08-14T23:32:02.178Z,64.50
2017-08-14T23:34:29.639Z,64.50
2017-08-14T23:36:57.216Z,64.50
2017-08-14T23:39:24.545Z,64.50
2017-08-14T23:41:51.732Z,64.50
2017-08-14T23:44:19.153Z,64.50
2017-08-14T23:46:46.330Z,64.60
2017-08-14T23:49:13.761Z,64.60
2017-08-14T23:51:41.216Z,64.60
2017-08-14T23:54:08.677Z,64.60
2017-08-14T23:56:35.860Z,64.60
2017-08-14T23:59:03.030Z,65.20
